sensor_id;sensor_type;location;lat;lon;timestamp;pressure;altitude;pressure_sealevel;temperature;humidity
15932;BME280;8065;49.520;11.284;2024-03-22T00:01:47;98128.28;;;11.08;85.99
15932;BME280;8065;49.520;11.284;2024-03-22T00:04:13;98128.72;;;11.02;85.86
15932;BME280;8065;49.520;11.284;2024-03-22T00:06:40;98131.81;;;10.73;87.14
15932;BME280;8065;49.520;11.284;2024-03-22T00:09:06;98134.44;;;10.50;88.61
15932;BME280;8065;49.520;11.284;2024-03-22T00:11:32;98126.19;;;10.52;88.67
15932;BME280;8065;49.520;11.284;2024-03-22T00:13:58;98133.53;;;10.55;88.49
15932;BME280;8065;49.520;11.284;2024-03-22T00:16:27;98132.69;;;10.46;89.31
15932;BME280;8065;49.520;11.284;2024-03-22T00:18:52;98128.34;;;10.50;88.63
15932;BME280;8065;49.520;11.284;2024-03-22T00:21:18;98126.72;;;10.63;88.41
15932;BME280;8065;49.520;11.284;2024-03-22T00:23:45;98136.19;;;10.55;87.95
15932;BME280;8065;49.520;11.284;2024-03-22T00:26:10;98128.53;;;10.54;87.99
15932;BME280;8065;49.520;11.284;2024-03-22T00:28:36;98133.66;;;10.50;88.12
15932;BME280;8065;49.520;11.284;2024-03-22T00:31:02;98126.28;;;10.47;88.80
15932;BME280;8065;49.520;11.284;2024-03-22T00:33:30;98130.66;;;10.65;87.92
15932;BME280;8065;49.520;11.284;2024-03-22T00:35:56;98130.41;;;10.31;88.30
15932;BME280;8065;49.520;11.284;2024-03-22T00:38:22;98129.34;;;10.40;88.73
15932;BME280;8065;49.520;11.284;2024-03-22T00:40:47;98126.84;;;10.35;88.49
15932;BME280;8065;49.520;11.284;2024-03-22T00:43:13;98121.34;;;10.18;88.75
15932;BME280;8065;49.520;11.284;2024-03-22T00:45:39;98126.53;;;10.59;88.42
15932;BME280;8065;49.520;11.284;2024-03-22T00:48:05;98121.00;;;10.69;86.94
15932;BME280;8065;49.520;11.284;2024-03-22T00:50:34;98124.00;;;10.54;86.80
15932;BME280;8065;49.520;11.284;2024-03-22T00:52:59;98114.94;;;10.55;87.25
15932;BME280;8065;49.520;11.284;2024-03-22T00:55:25;98118.69;;;10.18;88.55
15932;BME280;8065;49.520;11.284;2024-03-22T00:57:51;98113.19;;;10.50;88.08
15932;BME280;8065;49.520;11.284;2024-03-22T01:00:17;98107.94;;;10.37;88.90
15932;BME280;8065;49.520;11.284;2024-03-22T01:02:43;98109.03;;;10.36;88.60
15932;BME280;8065;49.520;11.284;2024-03-22T01:05:09;98099.53;;;10.07;88.56
15932;BME280;8065;49.520;11.284;2024-03-22T01:07:38;98095.97;;;10.26;88.93
15932;BME280;8065;49.520;11.284;2024-03-22T01:10:04;98106.00;;;10.29;87.25
15932;BME280;8065;49.520;11.284;2024-03-22T01:12:29;98100.50;;;10.11;88.58
15932;BME280;8065;49.520;11.284;2024-03-22T01:14:55;98098.78;;;9.93;88.13
15932;BME280;8065;49.520;11.284;2024-03-22T01:17:21;98091.31;;;9.81;89.03
15932;BME280;8065;49.520;11.284;2024-03-22T01:19:47;98092.28;;;9.99;89.04
15932;BME280;8065;49.520;11.284;2024-03-22T01:22:12;98086.75;;;10.09;88.36
15932;BME280;8065;49.520;11.284;2024-03-22T01:24:41;98084.19;;;10.04;90.12
15932;BME280;8065;49.520;11.284;2024-03-22T01:27:06;98089.88;;;10.11;88.09
15932;BME280;8065;49.520;11.284;2024-03-22T01:29:32;98087.06;;;10.08;88.45
15932;BME280;8065;49.520;11.284;2024-03-22T01:31:58;98082.44;;;10.00;88.12
15932;BME280;8065;49.520;11.284;2024-03-22T01:34:24;98090.78;;;10.07;87.66
15932;BME280;8065;49.520;11.284;2024-03-22T01:36:50;98085.19;;;10.08;88.38
15932;BME280;8065;49.520;11.284;2024-03-22T01:39:16;98086.38;;;10.02;88.54
15932;BME280;8065;49.520;11.284;2024-03-22T01:41:45;98082.28;;;9.69;88.52
15932;BME280;8065;49.520;11.284;2024-03-22T01:44:10;98082.69;;;9.76;88.77
15932;BME280;8065;49.520;11.284;2024-03-22T01:46:36;98088.59;;;9.59;89.69
15932;BME280;8065;49.520;11.284;2024-03-22T01:49:02;98091.28;;;9.45;89.23
15932;BME280;8065;49.520;11.284;2024-03-22T01:51:28;98084.88;;;9.46;88.64
15932;BME280;8065;49.520;11.284;2024-03-22T01:53:54;98078.16;;;9.63;87.93
15932;BME280;8065;49.520;11.284;2024-03-22T01:56:20;98091.13;;;9.64;87.52
15932;BME280;8065;49.520;11.284;2024-03-22T01:58:49;98094.56;;;9.65;88.08
15932;BME280;8065;49.520;11.284;2024-03-22T02:01:15;98084.03;;;9.87;86.59
15932;BME280;8065;49.520;11.284;2024-03-22T02:03:40;98084.25;;;9.77;86.27
15932;BME280;8065;49.520;11.284;2024-03-22T02:06:06;98083.88;;;9.56;85.11
15932;BME280;8065;49.520;11.284;2024-03-22T02:08:32;98077.63;;;9.38;86.29
15932;BME280;8065;49.520;11.284;2024-03-22T02:10:58;98080.94;;;9.16;85.84
15932;BME280;8065;49.520;11.284;2024-03-22T02:13:23;98076.81;;;9.10;87.21
15932;BME280;8065;49.520;11.284;2024-03-22T02:15:52;98075.03;;;9.06;87.07
15932;BME280;8065;49.520;11.284;2024-03-22T02:18:17;98068.63;;;8.93;87.33
15932;BME280;8065;49.520;11.284;2024-03-22T02:20:43;98052.91;;;8.83;87.75
15932;BME280;8065;49.520;11.284;2024-03-22T02:23:09;98045.72;;;8.70;88.89
15932;BME280;8065;49.520;11.284;2024-03-22T02:25:37;98042.63;;;9.09;88.46
15932;BME280;8065;49.520;11.284;2024-03-22T02:28:04;98045.78;;;9.38;86.85
15932;BME280;8065;49.520;11.284;2024-03-22T02:30:30;98049.81;;;9.49;85.86
15932;BME280;8065;49.520;11.284;2024-03-22T02:32:55;98041.91;;;9.72;85.48
15932;BME280;8065;49.520;11.284;2024-03-22T02:35:21;98036.81;;;9.62;86.69
15932;BME280;8065;49.520;11.284;2024-03-22T02:37:47;98029.28;;;9.41;87.51
15932;BME280;8065;49.520;11.284;2024-03-22T02:40:12;98028.63;;;9.72;86.80
15932;BME280;8065;49.520;11.284;2024-03-22T02:42:42;98023.88;;;9.82;85.85
15932;BME280;8065;49.520;11.284;2024-03-22T02:45:09;98018.59;;;9.69;85.14
15932;BME280;8065;49.520;11.284;2024-03-22T02:47:34;98023.91;;;9.69;86.87
15932;BME280;8065;49.520;11.284;2024-03-22T02:50:00;98025.88;;;9.63;86.69
15932;BME280;8065;49.520;11.284;2024-03-22T02:52:26;98015.63;;;9.84;86.45
15932;BME280;8065;49.520;11.284;2024-03-22T02:54:51;98019.19;;;9.66;85.84
15932;BME280;8065;49.520;11.284;2024-03-22T02:57:17;98016.94;;;9.73;86.68
15932;BME280;8065;49.520;11.284;2024-03-22T02:59:45;98010.16;;;9.67;86.03
15932;BME280;8065;49.520;11.284;2024-03-22T03:02:11;98015.16;;;9.68;86.67
15932;BME280;8065;49.520;11.284;2024-03-22T03:04:37;98015.31;;;9.49;86.64
15932;BME280;8065;49.520;11.284;2024-03-22T03:07:03;98009.63;;;9.42;86.61
15932;BME280;8065;49.520;11.284;2024-03-22T03:09:28;98007.38;;;9.36;86.71
15932;BME280;8065;49.520;11.284;2024-03-22T03:11:54;98007.47;;;9.44;86.30
15932;BME280;8065;49.520;11.284;2024-03-22T03:14:20;98000.31;;;9.31;88.18
15932;BME280;8065;49.520;11.284;2024-03-22T03:16:48;97993.63;;;9.34;87.59
15932;BME280;8065;49.520;11.284;2024-03-22T03:19:14;97991.47;;;9.22;88.16
15932;BME280;8065;49.520;11.284;2024-03-22T03:21:40;97992.34;;;9.31;87.41
15932;BME280;8065;49.520;11.284;2024-03-22T03:24:05;97988.13;;;9.30;87.85
15932;BME280;8065;49.520;11.284;2024-03-22T03:26:31;97991.16;;;9.37;87.21
15932;BME280;8065;49.520;11.284;2024-03-22T03:28:57;97988.03;;;9.35;86.99
15932;BME280;8065;49.520;11.284;2024-03-22T03:31:22;97993.53;;;9.39;86.65
15932;BME280;8065;49.520;11.284;2024-03-22T03:33:51;97998.19;;;9.56;86.80
15932;BME280;8065;49.520;11.284;2024-03-22T03:36:17;97990.22;;;9.56;86.34
15932;BME280;8065;49.520;11.284;2024-03-22T03:38:42;97999.91;;;9.38;87.00
15932;BME280;8065;49.520;11.284;2024-03-22T03:41:08;97995.78;;;9.45;86.94
15932;BME280;8065;49.520;11.284;2024-03-22T03:43:34;97997.34;;;9.46;85.82
15932;BME280;8065;49.520;11.284;2024-03-22T03:45:59;97996.69;;;9.27;86.46
15932;BME280;8065;49.520;11.284;2024-03-22T03:48:25;97998.06;;;9.25;88.91
15932;BME280;8065;49.520;11.284;2024-03-22T03:50:55;97998.53;;;9.27;87.49
15932;BME280;8065;49.520;11.284;2024-03-22T03:53:21;97999.22;;;9.32;86.90
15932;BME280;8065;49.520;11.284;2024-03-22T03:55:47;97995.50;;;9.33;86.62
15932;BME280;8065;49.520;11.284;2024-03-22T03:58:12;97995.81;;;9.18;87.17
15932;BME280;8065;49.520;11.284;2024-03-22T04:00:38;97991.78;;;9.07;87.61
15932;BME280;8065;49.520;11.284;2024-03-22T04:03:04;97997.47;;;9.14;87.29
15932;BME280;8065;49.520;11.284;2024-03-22T04:05:30;97991.78;;;9.07;87.14
15932;BME280;8065;49.520;11.284;2024-03-22T04:07:58;97987.84;;;9.18;87.43
15932;BME280;8065;49.520;11.284;2024-03-22T04:10:24;97982.53;;;9.04;87.09
15932;BME280;8065;49.520;11.284;2024-03-22T04:12:49;97978.81;;;9.19;86.99
15932;BME280;8065;49.520;11.284;2024-03-22T04:15:15;97985.88;;;9.10;86.59
15932;BME280;8065;49.520;11.284;2024-03-22T04:17:41;97983.91;;;9.02;87.31
15932;BME280;8065;49.520;11.284;2024-03-22T04:20:07;97980.47;;;9.01;87.42
15932;BME280;8065;49.520;11.284;2024-03-22T04:22:34;97986.06;;;9.00;86.97
15932;BME280;8065;49.520;11.284;2024-03-22T04:25:02;97992.16;;;8.86;88.24
15932;BME280;8065;49.520;11.284;2024-03-22T04:27:28;97976.84;;;8.97;87.62
15932;BME280;8065;49.520;11.284;2024-03-22T04:29:54;97982.34;;;9.01;87.22
15932;BME280;8065;49.520;11.284;2024-03-22T04:32:20;97981.94;;;8.94;86.48
15932;BME280;8065;49.520;11.284;2024-03-22T04:34:45;97974.50;;;8.96;87.00
15932;BME280;8065;49.520;11.284;2024-03-22T04:37:11;97987.03;;;8.76;87.42
15932;BME280;8065;49.520;11.284;2024-03-22T04:39:37;97974.50;;;8.96;87.78
15932;BME280;8065;49.520;11.284;2024-03-22T04:42:06;97987.84;;;8.91;86.46
15932;BME280;8065;49.520;11.284;2024-03-22T04:44:31;97982.31;;;8.73;87.23
15932;BME280;8065;49.520;11.284;2024-03-22T04:46:57;97985.28;;;8.85;86.92
15932;BME280;8065;49.520;11.284;2024-03-22T04:49:23;97985.28;;;8.85;86.57
15932;BME280;8065;49.520;11.284;2024-03-22T04:51:49;97990.69;;;8.80;87.09
15932;BME280;8065;49.520;11.284;2024-03-22T04:54:14;97987.72;;;8.54;87.45
15932;BME280;8065;49.520;11.284;2024-03-22T04:56:40;97999.22;;;8.64;87.55
15932;BME280;8065;49.520;11.284;2024-03-22T04:59:08;97984.59;;;8.66;86.67
15932;BME280;8065;49.520;11.284;2024-03-22T05:01:34;97991.34;;;8.59;87.45
15932;BME280;8065;49.520;11.284;2024-03-22T05:04:00;97990.00;;;8.61;87.26
15932;BME280;8065;49.520;11.284;2024-03-22T05:06:25;97991.31;;;8.45;86.96
15932;BME280;8065;49.520;11.284;2024-03-22T05:08:51;97995.88;;;8.58;87.26
15932;BME280;8065;49.520;11.284;2024-03-22T05:11:17;97988.00;;;8.53;87.08
15932;BME280;8065;49.520;11.284;2024-03-22T05:13:43;97990.84;;;8.43;86.32
15932;BME280;8065;49.520;11.284;2024-03-22T05:16:11;97998.50;;;8.26;86.05
15932;BME280;8065;49.520;11.284;2024-03-22T05:18:37;97992.84;;;8.32;86.21
15932;BME280;8065;49.520;11.284;2024-03-22T05:21:03;97989.97;;;8.29;85.30
15932;BME280;8065;49.520;11.284;2024-03-22T05:23:29;97996.78;;;8.35;85.70
15932;BME280;8065;49.520;11.284;2024-03-22T05:25:54;97989.84;;;8.20;84.23
15932;BME280;8065;49.520;11.284;2024-03-22T05:28:20;97987.56;;;8.13;83.88
15932;BME280;8065;49.520;11.284;2024-03-22T05:30:47;97984.56;;;8.20;84.08
15932;BME280;8065;49.520;11.284;2024-03-22T05:33:15;97981.50;;;8.13;84.79
15932;BME280;8065;49.520;11.284;2024-03-22T05:35:44;97981.78;;;8.11;85.72
15932;BME280;8065;49.520;11.284;2024-03-22T05:38:13;97972.91;;;8.02;85.33
15932;BME280;8065;49.520;11.284;2024-03-22T05:40:38;97971.78;;;8.08;85.88
15932;BME280;8065;49.520;11.284;2024-03-22T05:43:04;97971.78;;;8.08;85.97
15932;BME280;8065;49.520;11.284;2024-03-22T05:45:30;97962.75;;;8.09;86.83
15932;BME280;8065;49.520;11.284;2024-03-22T05:47:56;97961.69;;;8.10;86.42
15932;BME280;8065;49.520;11.284;2024-03-22T05:50:24;97955.31;;;8.11;87.45
15932;BME280;8065;49.520;11.284;2024-03-22T05:52:50;97964.75;;;8.17;86.82
15932;BME280;8065;49.520;11.284;2024-03-22T05:55:16;97956.91;;;7.94;88.92
15932;BME280;8065;49.520;11.284;2024-03-22T05:57:41;97963.34;;;8.06;88.41
15932;BME280;8065;49.520;11.284;2024-03-22T06:00:08;97952.22;;;8.23;87.62
15932;BME280;8065;49.520;11.284;2024-03-22T06:02:33;97946.22;;;8.17;87.58
15932;BME280;8065;49.520;11.284;2024-03-22T06:04:59;97950.84;;;8.26;87.60
15932;BME280;8065;49.520;11.284;2024-03-22T06:07:27;97947.03;;;7.99;88.51
15932;BME280;8065;49.520;11.284;2024-03-22T06:09:53;97945.25;;;8.27;87.69
15932;BME280;8065;49.520;11.284;2024-03-22T06:12:19;97937.78;;;8.15;87.39
15932;BME280;8065;49.520;11.284;2024-03-22T06:14:45;97943.72;;;8.07;89.24
15932;BME280;8065;49.520;11.284;2024-03-22T06:17:11;97930.00;;;8.05;88.16
15932;BME280;8065;49.520;11.284;2024-03-22T06:19:37;97923.97;;;8.18;87.86
15932;BME280;8065;49.520;11.284;2024-03-22T06:22:03;97930.28;;;8.04;88.35
15932;BME280;8065;49.520;11.284;2024-03-22T06:24:32;97925.03;;;8.17;88.88
15932;BME280;8065;49.520;11.284;2024-03-22T06:26:57;97930.75;;;8.25;88.45
15932;BME280;8065;49.520;11.284;2024-03-22T06:29:23;97920.41;;;8.42;87.71
15932;BME280;8065;49.520;11.284;2024-03-22T06:31:49;97921.13;;;8.29;87.63
15932;BME280;8065;49.520;11.284;2024-03-22T06:34:15;97915.22;;;8.37;88.35
15932;BME280;8065;49.520;11.284;2024-03-22T06:36:40;97918.47;;;8.61;87.91
15932;BME280;8065;49.520;11.284;2024-03-22T06:39:06;97916.19;;;8.96;86.50
15932;BME280;8065;49.520;11.284;2024-03-22T06:41:35;97915.44;;;9.31;85.32
15932;BME280;8065;49.520;11.284;2024-03-22T06:44:00;97910.47;;;9.16;86.28
15932;BME280;8065;49.520;11.284;2024-03-22T06:46:26;97916.66;;;9.25;86.49
15932;BME280;8065;49.520;11.284;2024-03-22T06:48:52;97909.22;;;9.49;85.85
15932;BME280;8065;49.520;11.284;2024-03-22T06:51:18;97919.34;;;9.70;85.02
15932;BME280;8065;49.520;11.284;2024-03-22T06:53:44;97910.03;;;9.59;84.80
15932;BME280;8065;49.520;11.284;2024-03-22T06:56:10;97912.75;;;9.09;86.93
15932;BME280;8065;49.520;11.284;2024-03-22T06:58:38;97904.81;;;8.81;88.64
15932;BME280;8065;49.520;11.284;2024-03-22T07:01:04;97907.75;;;8.94;88.23
15932;BME280;8065;49.520;11.284;2024-03-22T07:03:30;97901.97;;;8.92;89.00
15932;BME280;8065;49.520;11.284;2024-03-22T07:05:56;97902.66;;;8.83;89.43
15932;BME280;8065;49.520;11.284;2024-03-22T07:08:23;97902.53;;;9.02;89.19
15932;BME280;8065;49.520;11.284;2024-03-22T07:10:48;97910.38;;;9.21;88.41
15932;BME280;8065;49.520;11.284;2024-03-22T07:13:14;97899.31;;;8.92;90.06
15932;BME280;8065;49.520;11.284;2024-03-22T07:15:44;97901.75;;;9.02;89.54
15932;BME280;8065;49.520;11.284;2024-03-22T07:18:09;97903.31;;;9.03;89.24
15932;BME280;8065;49.520;11.284;2024-03-22T07:20:35;97901.84;;;8.97;90.18
15932;BME280;8065;49.520;11.284;2024-03-22T07:23:01;97895.97;;;9.00;89.79
15932;BME280;8065;49.520;11.284;2024-03-22T07:25:27;97901.84;;;8.97;90.64
15932;BME280;8065;49.520;11.284;2024-03-22T07:27:52;97900.00;;;8.97;91.44
15932;BME280;8065;49.520;11.284;2024-03-22T07:30:18;97896.84;;;9.09;91.36
15932;BME280;8065;49.520;11.284;2024-03-22T07:32:48;97896.72;;;9.14;91.22
15932;BME280;8065;49.520;11.284;2024-03-22T07:35:14;97889.19;;;9.43;89.81
15932;BME280;8065;49.520;11.284;2024-03-22T07:37:40;97886.44;;;9.48;89.29
15932;BME280;8065;49.520;11.284;2024-03-22T07:40:07;97881.72;;;9.68;88.22
15932;BME280;8065;49.520;11.284;2024-03-22T07:42:33;97888.22;;;9.84;88.45
15932;BME280;8065;49.520;11.284;2024-03-22T07:44:58;97886.13;;;9.95;88.14
15932;BME280;8065;49.520;11.284;2024-03-22T07:47:24;97884.16;;;10.09;87.91
15932;BME280;8065;49.520;11.284;2024-03-22T07:49:53;97883.38;;;10.08;88.29
15932;BME280;8065;49.520;11.284;2024-03-22T07:52:19;97889.66;;;10.12;88.54
15932;BME280;8065;49.520;11.284;2024-03-22T07:54:45;97889.91;;;10.02;88.71
15932;BME280;8065;49.520;11.284;2024-03-22T07:57:10;97893.97;;;10.22;87.57
15932;BME280;8065;49.520;11.284;2024-03-22T07:59:36;97889.44;;;10.23;88.09
15932;BME280;8065;49.520;11.284;2024-03-22T08:02:02;97889.81;;;10.38;87.84
15932;BME280;8065;49.520;11.284;2024-03-22T08:04:28;97884.03;;;10.45;87.62
15932;BME280;8065;49.520;11.284;2024-03-22T08:06:57;97887.66;;;10.49;86.97
15932;BME280;8065;49.520;11.284;2024-03-22T08:09:23;97877.41;;;10.65;86.91
15932;BME280;8065;49.520;11.284;2024-03-22T08:11:49;97882.44;;;10.75;86.47
15932;BME280;8065;49.520;11.284;2024-03-22T08:14:14;97876.13;;;10.62;87.78
15932;BME280;8065;49.520;11.284;2024-03-22T08:16:41;97875.84;;;10.72;88.21
15932;BME280;8065;49.520;11.284;2024-03-22T08:19:07;97868.34;;;10.74;87.81
15932;BME280;8065;49.520;11.284;2024-03-22T08:21:33;97870.59;;;10.90;87.63
15932;BME280;8065;49.520;11.284;2024-03-22T08:24:01;97871.72;;;11.06;87.25
15932;BME280;8065;49.520;11.284;2024-03-22T08:26:27;97873.47;;;11.19;86.02
15932;BME280;8065;49.520;11.284;2024-03-22T08:28:52;97863.13;;;11.26;86.27
15932;BME280;8065;49.520;11.284;2024-03-22T08:31:18;97867.97;;;11.33;85.17
15932;BME280;8065;49.520;11.284;2024-03-22T08:33:44;97850.59;;;11.53;84.84
15932;BME280;8065;49.520;11.284;2024-03-22T08:36:09;97852.63;;;11.56;84.64
15932;BME280;8065;49.520;11.284;2024-03-22T08:38:35;97859.19;;;11.49;84.18
15932;BME280;8065;49.520;11.284;2024-03-22T08:41:04;97857.00;;;11.69;84.22
15932;BME280;8065;49.520;11.284;2024-03-22T08:43:29;97864.69;;;11.79;83.83
15932;BME280;8065;49.520;11.284;2024-03-22T08:45:55;97855.75;;;11.92;83.54
15932;BME280;8065;49.520;11.284;2024-03-22T08:48:21;97851.81;;;11.98;83.82
15932;BME280;8065;49.520;11.284;2024-03-22T08:50:47;97859.03;;;11.89;84.00
15932;BME280;8065;49.520;11.284;2024-03-22T08:53:12;97855.78;;;12.22;85.16
15932;BME280;8065;49.520;11.284;2024-03-22T08:55:38;97849.78;;;12.71;83.33
15932;BME280;8065;49.520;11.284;2024-03-22T08:58:06;97838.34;;;13.21;81.43
15932;BME280;8065;49.520;11.284;2024-03-22T09:00:32;97849.19;;;13.91;80.35
15932;BME280;8065;49.520;11.284;2024-03-22T09:02:58;97839.34;;;14.40;79.68
15932;BME280;8065;49.520;11.284;2024-03-22T09:05:24;97850.75;;;14.61;75.69
15932;BME280;8065;49.520;11.284;2024-03-22T09:07:49;97854.75;;;14.92;74.97
15932;BME280;8065;49.520;11.284;2024-03-22T09:10:16;97845.81;;;14.88;73.01
15932;BME280;8065;49.520;11.284;2024-03-22T09:12:41;97840.41;;;15.24;72.11
15932;BME280;8065;49.520;11.284;2024-03-22T09:15:10;97832.97;;;15.58;70.58
15932;BME280;8065;49.520;11.284;2024-03-22T09:17:36;97841.94;;;16.09;69.17
15932;BME280;8065;49.520;11.284;2024-03-22T09:20:02;97837.69;;;16.55;68.82
15932;BME280;8065;49.520;11.284;2024-03-22T09:22:28;97833.19;;;16.91;67.79
15932;BME280;8065;49.520;11.284;2024-03-22T09:24:54;97833.44;;;17.21;67.21
15932;BME280;8065;49.520;11.284;2024-03-22T09:27:20;97829.69;;;17.83;62.86
15932;BME280;8065;49.520;11.284;2024-03-22T09:29:45;97826.38;;;18.13;61.58
15932;BME280;8065;49.520;11.284;2024-03-22T09:32:16;97819.28;;;18.50;60.53
15932;BME280;8065;49.520;11.284;2024-03-22T09:34:42;97819.34;;;18.31;60.43
15932;BME280;8065;49.520;11.284;2024-03-22T09:37:08;97812.81;;;18.55;60.26
15932;BME280;8065;49.520;11.284;2024-03-22T09:39:34;97815.91;;;18.80;60.55
15932;BME280;8065;49.520;11.284;2024-03-22T09:42:00;97805.50;;;19.08;59.82
15932;BME280;8065;49.520;11.284;2024-03-22T09:44:30;97807.28;;;18.97;59.22
15932;BME280;8065;49.520;11.284;2024-03-22T09:46:59;97799.00;;;19.43;57.55
15932;BME280;8065;49.520;11.284;2024-03-22T09:49:27;97783.50;;;19.66;56.54
15932;BME280;8065;49.520;11.284;2024-03-22T09:51:54;97786.38;;;19.84;56.66
15932;BME280;8065;49.520;11.284;2024-03-22T09:54:22;97780.31;;;19.97;56.50
15932;BME280;8065;49.520;11.284;2024-03-22T09:56:49;97778.63;;;20.26;56.53
15932;BME280;8065;49.520;11.284;2024-03-22T09:59:16;97776.28;;;20.73;56.59
15932;BME280;8065;49.520;11.284;2024-03-22T10:01:43;97767.88;;;20.92;55.36
15932;BME280;8065;49.520;11.284;2024-03-22T10:04:08;97761.00;;;21.09;54.37
15932;BME280;8065;49.520;11.284;2024-03-22T10:06:37;97748.78;;;21.36;54.04
15932;BME280;8065;49.520;11.284;2024-03-22T10:09:05;97751.50;;;21.40;53.08
15932;BME280;8065;49.520;11.284;2024-03-22T10:11:30;97748.34;;;20.47;53.58
15932;BME280;8065;49.520;11.284;2024-03-22T10:13:56;97739.59;;;20.13;54.52
15932;BME280;8065;49.520;11.284;2024-03-22T10:16:22;97750.13;;;19.81;56.20
15932;BME280;8065;49.520;11.284;2024-03-22T10:18:48;97747.72;;;19.73;55.15
15932;BME280;8065;49.520;11.284;2024-03-22T10:21:17;97734.69;;;19.78;56.08
15932;BME280;8065;49.520;11.284;2024-03-22T10:23:46;97730.56;;;19.95;55.08
15932;BME280;8065;49.520;11.284;2024-03-22T10:26:12;97725.72;;;20.15;55.34
15932;BME280;8065;49.520;11.284;2024-03-22T10:28:44;97727.34;;;20.95;55.50
15932;BME280;8065;49.520;11.284;2024-03-22T10:31:11;97727.94;;;21.37;52.43
15932;BME280;8065;49.520;11.284;2024-03-22T10:33:37;97707.09;;;21.55;51.17
15932;BME280;8065;49.520;11.284;2024-03-22T10:36:04;97705.59;;;22.11;50.26
15932;BME280;8065;49.520;11.284;2024-03-22T10:38:32;97710.97;;;22.50;49.80
15932;BME280;8065;49.520;11.284;2024-03-22T10:41:00;97703.28;;;22.13;47.97
15932;BME280;8065;49.520;11.284;2024-03-22T10:43:26;97704.78;;;21.85;47.86
15932;BME280;8065;49.520;11.284;2024-03-22T10:45:55;97700.91;;;21.79;47.17
15932;BME280;8065;49.520;11.284;2024-03-22T10:48:24;97692.81;;;22.29;47.19
15932;BME280;8065;49.520;11.284;2024-03-22T10:50:55;97684.69;;;22.22;49.65
15932;BME280;8065;49.520;11.284;2024-03-22T10:53:25;97688.94;;;22.37;49.93
15932;BME280;8065;49.520;11.284;2024-03-22T10:55:52;97684.69;;;22.26;47.96
15932;BME280;8065;49.520;11.284;2024-03-22T10:58:24;97683.94;;;22.11;47.74
15932;BME280;8065;49.520;11.284;2024-03-22T11:00:51;97678.50;;;21.97;48.34
15932;BME280;8065;49.520;11.284;2024-03-22T11:03:19;97688.56;;;21.92;49.21
15932;BME280;8065;49.520;11.284;2024-03-22T11:05:45;97673.84;;;22.01;47.80
15932;BME280;8065;49.520;11.284;2024-03-22T11:08:11;97666.91;;;21.92;48.21
15932;BME280;8065;49.520;11.284;2024-03-22T11:10:37;97660.75;;;21.60;47.29
15932;BME280;8065;49.520;11.284;2024-03-22T11:13:03;97645.66;;;22.05;47.57
15932;BME280;8065;49.520;11.284;2024-03-22T11:15:32;97639.06;;;22.17;48.45
15932;BME280;8065;49.520;11.284;2024-03-22T11:17:59;97641.41;;;22.11;48.37
15932;BME280;8065;49.520;11.284;2024-03-22T11:20:24;97632.81;;;22.41;48.11
15932;BME280;8065;49.520;11.284;2024-03-22T11:22:51;97637.09;;;22.28;45.75
15932;BME280;8065;49.520;11.284;2024-03-22T11:25:17;97645.91;;;22.53;45.38
15932;BME280;8065;49.520;11.284;2024-03-22T11:27:43;97629.88;;;22.98;44.60
15932;BME280;8065;49.520;11.284;2024-03-22T11:30:09;97626.44;;;22.91;45.25
15932;BME280;8065;49.520;11.284;2024-03-22T11:32:37;97628.94;;;22.49;44.97
15932;BME280;8065;49.520;11.284;2024-03-22T11:35:04;97625.13;;;22.22;45.19
15932;BME280;8065;49.520;11.284;2024-03-22T11:37:30;97616.59;;;22.34;46.01
15932;BME280;8065;49.520;11.284;2024-03-22T11:39:56;97605.75;;;22.34;45.42
15932;BME280;8065;49.520;11.284;2024-03-22T11:42:21;97606.41;;;22.60;45.55
15932;BME280;8065;49.520;11.284;2024-03-22T11:44:47;97595.69;;;22.38;45.77
15932;BME280;8065;49.520;11.284;2024-03-22T11:47:13;97595.78;;;21.88;46.69
15932;BME280;8065;49.520;11.284;2024-03-22T11:49:42;97584.97;;;22.03;47.22
15932;BME280;8065;49.520;11.284;2024-03-22T11:52:08;97570.63;;;21.95;46.75
15932;BME280;8065;49.520;11.284;2024-03-22T11:54:34;97574.06;;;22.24;47.24
15932;BME280;8065;49.520;11.284;2024-03-22T11:56:59;97570.94;;;22.36;47.35
15932;BME280;8065;49.520;11.284;2024-03-22T11:59:25;97567.78;;;22.52;46.03
15932;BME280;8065;49.520;11.284;2024-03-22T12:01:51;97568.47;;;22.60;45.65
15932;BME280;8065;49.520;11.284;2024-03-22T12:04:17;97561.91;;;22.61;44.16
15932;BME280;8065;49.520;11.284;2024-03-22T12:06:45;97558.03;;;22.62;42.88
15932;BME280;8065;49.520;11.284;2024-03-22T12:09:11;97557.28;;;22.54;42.38
15932;BME280;8065;49.520;11.284;2024-03-22T12:11:37;97547.56;;;22.64;43.36
15932;BME280;8065;49.520;11.284;2024-03-22T12:14:03;97543.53;;;22.97;43.24
15932;BME280;8065;49.520;11.284;2024-03-22T12:16:29;97542.66;;;23.10;43.23
15932;BME280;8065;49.520;11.284;2024-03-22T12:18:54;97533.03;;;23.47;43.81
15932;BME280;8065;49.520;11.284;2024-03-22T12:21:20;97534.13;;;23.98;42.82
15932;BME280;8065;49.520;11.284;2024-03-22T12:23:48;97528.47;;;23.81;41.83
15932;BME280;8065;49.520;11.284;2024-03-22T12:26:14;97535.94;;;23.74;43.07
15932;BME280;8065;49.520;11.284;2024-03-22T12:28:40;97519.75;;;23.63;43.44
15932;BME280;8065;49.520;11.284;2024-03-22T12:31:07;97524.63;;;23.38;42.39
15932;BME280;8065;49.520;11.284;2024-03-22T12:33:33;97522.59;;;23.45;42.18
15932;BME280;8065;49.520;11.284;2024-03-22T12:35:59;97526.63;;;23.30;42.66
15932;BME280;8065;49.520;11.284;2024-03-22T12:38:24;97519.78;;;23.15;42.13
15932;BME280;8065;49.520;11.284;2024-03-22T12:40:53;97512.53;;;23.42;43.03
15932;BME280;8065;49.520;11.284;2024-03-22T12:43:19;97510.16;;;23.48;43.14
15932;BME280;8065;49.520;11.284;2024-03-22T12:45:45;97514.31;;;23.18;43.64
15932;BME280;8065;49.520;11.284;2024-03-22T12:48:10;97509.66;;;23.19;43.48
15932;BME280;8065;49.520;11.284;2024-03-22T12:50:36;97498.16;;;23.49;42.77
15932;BME280;8065;49.520;11.284;2024-03-22T12:53:02;97490.47;;;23.81;43.09
15932;BME280;8065;49.520;11.284;2024-03-22T12:55:28;97479.34;;;23.72;41.61
15932;BME280;8065;49.520;11.284;2024-03-22T12:57:56;97483.00;;;23.93;42.10
15932;BME280;8065;49.520;11.284;2024-03-22T13:00:22;97480.34;;;23.85;42.61